sensor_id;sensor_type;location;lat;lon;timestamp;P1;durP1;ratioP1;P2;durP2;ratioP2
16282;SDS011;8249;48.708;9.030;2022-08-04T00:00:23;2.20;;;1.90;;
16282;SDS011;8249;48.708;9.030;2022-08-04T00:02:54;3.22;;;1.98;;
16282;SDS011;8249;48.708;9.030;2022-08-04T00:05:33;2.92;;;1.98;;
16282;SDS011;8249;48.708;9.030;2022-08-04T00:08:10;2.97;;;1.90;;
16282;SDS011;8249;48.708;9.030;2022-08-04T00:10:40;2.67;;;2.20;;
16282;SDS011;8249;48.708;9.030;2022-08-04T00:13:13;1.90;;;1.70;;
16282;SDS011;8249;48.708;9.030;2022-08-04T00:15:43;2.03;;;1.90;;
16282;SDS011;8249;48.708;9.030;2022-08-04T00:18:14;2.37;;;2.00;;
16282;SDS011;8249;48.708;9.030;2022-08-04T00:20:42;2.77;;;2.00;;
16282;SDS011;8249;48.708;9.030;2022-08-04T00:23:10;1.95;;;1.83;;
16282;SDS011;8249;48.708;9.030;2022-08-04T00:25:39;2.00;;;1.90;;
16282;SDS011;8249;48.708;9.030;2022-08-04T00:28:06;2.00;;;1.90;;
16282;SDS011;8249;48.708;9.030;2022-08-04T00:30:34;2.07;;;1.90;;
16282;SDS011;8249;48.708;9.030;2022-08-04T00:33:01;2.83;;;2.00;;
16282;SDS011;8249;48.708;9.030;2022-08-04T00:35:30;3.00;;;1.97;;
16282;SDS011;8249;48.708;9.030;2022-08-04T00:37:58;2.43;;;2.23;;
16282;SDS011;8249;48.708;9.030;2022-08-04T00:40:27;2.10;;;2.00;;
16282;SDS011;8249;48.708;9.030;2022-08-04T00:43:02;2.40;;;2.20;;
16282;SDS011;8249;48.708;9.030;2022-08-04T00:48:43;1.97;;;1.87;;
16282;SDS011;8249;48.708;9.030;2022-08-04T00:51:25;4.40;;;2.00;;
16282;SDS011;8249;48.708;9.030;2022-08-04T00:54:05;2.10;;;1.90;;
16282;SDS011;8249;48.708;9.030;2022-08-04T00:56:43;1.70;;;1.60;;
16282;SDS011;8249;48.708;9.030;2022-08-04T00:59:45;2.27;;;2.10;;
16282;SDS011;8249;48.708;9.030;2022-08-04T01:02:23;2.80;;;2.00;;
16282;SDS011;8249;48.708;9.030;2022-08-04T01:05:00;2.20;;;2.10;;
16282;SDS011;8249;48.708;9.030;2022-08-04T01:07:45;3.83;;;1.83;;
16282;SDS011;8249;48.708;9.030;2022-08-04T01:10:23;2.10;;;2.00;;
16282;SDS011;8249;48.708;9.030;2022-08-04T01:13:11;2.28;;;1.70;;
16282;SDS011;8249;48.708;9.030;2022-08-04T01:15:53;2.90;;;2.10;;
16282;SDS011;8249;48.708;9.030;2022-08-04T01:18:29;2.10;;;2.00;;
16282;SDS011;8249;48.708;9.030;2022-08-04T01:24:25;4.90;;;2.00;;
16282;SDS011;8249;48.708;9.030;2022-08-04T01:27:01;2.27;;;2.17;;
16282;SDS011;8249;48.708;9.030;2022-08-04T01:29:36;4.20;;;2.00;;
16282;SDS011;8249;48.708;9.030;2022-08-04T01:32:06;4.80;;;2.10;;
16282;SDS011;8249;48.708;9.030;2022-08-04T01:34:38;2.83;;;1.90;;
16282;SDS011;8249;48.708;9.030;2022-08-04T01:37:10;2.00;;;1.90;;
16282;SDS011;8249;48.708;9.030;2022-08-04T01:39:48;2.03;;;1.93;;
16282;SDS011;8249;48.708;9.030;2022-08-04T01:42:19;2.10;;;2.00;;
16282;SDS011;8249;48.708;9.030;2022-08-04T01:44:48;4.83;;;2.10;;
16282;SDS011;8249;48.708;9.030;2022-08-04T01:47:16;2.08;;;1.98;;
16282;SDS011;8249;48.708;9.030;2022-08-04T01:49:48;3.50;;;2.00;;
16282;SDS011;8249;48.708;9.030;2022-08-04T01:52:17;2.40;;;2.20;;
16282;SDS011;8249;48.708;9.030;2022-08-04T01:54:45;2.10;;;2.00;;
16282;SDS011;8249;48.708;9.030;2022-08-04T01:57:13;3.13;;;2.30;;
16282;SDS011;8249;48.708;9.030;2022-08-04T01:59:44;2.00;;;1.90;;
16282;SDS011;8249;48.708;9.030;2022-08-04T02:02:16;3.37;;;2.23;;
16282;SDS011;8249;48.708;9.030;2022-08-04T02:04:43;2.93;;;2.30;;
16282;SDS011;8249;48.708;9.030;2022-08-04T02:07:16;2.50;;;2.33;;
16282;SDS011;8249;48.708;9.030;2022-08-04T02:09:52;4.07;;;2.37;;
16282;SDS011;8249;48.708;9.030;2022-08-04T02:12:32;4.13;;;2.40;;
16282;SDS011;8249;48.708;9.030;2022-08-04T02:15:12;2.57;;;2.20;;
16282;SDS011;8249;48.708;9.030;2022-08-04T02:17:45;2.40;;;2.30;;
16282;SDS011;8249;48.708;9.030;2022-08-04T02:20:22;2.63;;;2.43;;
16282;SDS011;8249;48.708;9.030;2022-08-04T02:22:52;2.53;;;2.33;;
16282;SDS011;8249;48.708;9.030;2022-08-04T02:25:23;2.70;;;2.50;;
16282;SDS011;8249;48.708;9.030;2022-08-04T02:27:55;2.43;;;2.20;;
16282;SDS011;8249;48.708;9.030;2022-08-04T02:30:52;3.60;;;1.97;;
16282;SDS011;8249;48.708;9.030;2022-08-04T02:33:28;3.07;;;2.30;;
16282;SDS011;8249;48.708;9.030;2022-08-04T02:36:00;3.13;;;2.10;;
16282;SDS011;8249;48.708;9.030;2022-08-04T02:38:33;2.03;;;1.93;;
16282;SDS011;8249;48.708;9.030;2022-08-04T02:41:13;2.17;;;2.07;;
16282;SDS011;8249;48.708;9.030;2022-08-04T02:43:42;5.13;;;2.17;;
16282;SDS011;8249;48.708;9.030;2022-08-04T02:46:12;2.30;;;2.10;;
16282;SDS011;8249;48.708;9.030;2022-08-04T02:48:41;2.67;;;2.10;;
16282;SDS011;8249;48.708;9.030;2022-08-04T02:51:11;2.20;;;2.03;;
16282;SDS011;8249;48.708;9.030;2022-08-04T02:53:40;2.20;;;2.10;;
16282;SDS011;8249;48.708;9.030;2022-08-04T02:56:07;2.20;;;2.10;;
16282;SDS011;8249;48.708;9.030;2022-08-04T02:58:36;2.53;;;2.10;;
16282;SDS011;8249;48.708;9.030;2022-08-04T03:01:07;3.10;;;2.13;;
16282;SDS011;8249;48.708;9.030;2022-08-04T03:03:37;3.43;;;2.20;;
16282;SDS011;8249;48.708;9.030;2022-08-04T03:06:27;2.20;;;2.10;;
16282;SDS011;8249;48.708;9.030;2022-08-04T03:15:34;2.20;;;2.07;;
16282;SDS011;8249;48.708;9.030;2022-08-04T03:28:16;2.80;;;2.07;;
16282;SDS011;8249;48.708;9.030;2022-08-04T03:31:29;2.60;;;2.40;;
16282;SDS011;8249;48.708;9.030;2022-08-04T03:34:34;2.10;;;2.00;;
16282;SDS011;8249;48.708;9.030;2022-08-04T03:37:28;2.27;;;2.17;;
16282;SDS011;8249;48.708;9.030;2022-08-04T03:40:11;2.20;;;2.00;;
16282;SDS011;8249;48.708;9.030;2022-08-04T03:43:00;2.10;;;2.00;;
16282;SDS011;8249;48.708;9.030;2022-08-04T03:45:46;3.13;;;2.30;;
16282;SDS011;8249;48.708;9.030;2022-08-04T03:48:44;2.50;;;2.33;;
16282;SDS011;8249;48.708;9.030;2022-08-04T03:51:32;2.20;;;2.10;;
16282;SDS011;8249;48.708;9.030;2022-08-04T03:54:36;3.23;;;2.00;;
16282;SDS011;8249;48.708;9.030;2022-08-04T04:00:13;2.50;;;2.27;;
16282;SDS011;8249;48.708;9.030;2022-08-04T04:06:18;2.07;;;1.97;;
16282;SDS011;8249;48.708;9.030;2022-08-04T04:09:15;2.20;;;2.10;;
16282;SDS011;8249;48.708;9.030;2022-08-04T04:12:12;2.20;;;2.10;;
16282;SDS011;8249;48.708;9.030;2022-08-04T04:15:03;3.00;;;2.10;;
16282;SDS011;8249;48.708;9.030;2022-08-04T04:17:49;2.57;;;2.00;;
16282;SDS011;8249;48.708;9.030;2022-08-04T04:20:42;2.13;;;2.00;;
16282;SDS011;8249;48.708;9.030;2022-08-04T04:23:37;2.70;;;2.50;;
16282;SDS011;8249;48.708;9.030;2022-08-04T04:26:24;2.30;;;2.20;;
16282;SDS011;8249;48.708;9.030;2022-08-04T04:29:10;2.10;;;1.90;;
16282;SDS011;8249;48.708;9.030;2022-08-04T04:32:01;2.20;;;2.10;;
16282;SDS011;8249;48.708;9.030;2022-08-04T04:34:37;2.23;;;2.10;;
16282;SDS011;8249;48.708;9.030;2022-08-04T04:37:16;2.40;;;2.20;;
16282;SDS011;8249;48.708;9.030;2022-08-04T04:39:58;2.53;;;2.40;;
16282;SDS011;8249;48.708;9.030;2022-08-04T04:42:41;2.60;;;2.23;;
16282;SDS011;8249;48.708;9.030;2022-08-04T04:45:28;2.27;;;2.07;;
16282;SDS011;8249;48.708;9.030;2022-08-04T04:48:03;2.77;;;2.00;;
16282;SDS011;8249;48.708;9.030;2022-08-04T04:50:50;3.97;;;2.40;;
16282;SDS011;8249;48.708;9.030;2022-08-04T04:53:26;2.80;;;2.20;;
16282;SDS011;8249;48.708;9.030;2022-08-04T04:55:59;2.20;;;2.07;;
16282;SDS011;8249;48.708;9.030;2022-08-04T04:58:34;3.47;;;2.20;;
16282;SDS011;8249;48.708;9.030;2022-08-04T05:01:15;2.53;;;2.30;;
16282;SDS011;8249;48.708;9.030;2022-08-04T05:04:02;2.30;;;2.20;;
16282;SDS011;8249;48.708;9.030;2022-08-04T05:06:50;3.27;;;2.30;;
16282;SDS011;8249;48.708;9.030;2022-08-04T05:09:36;2.63;;;2.20;;
16282;SDS011;8249;48.708;9.030;2022-08-04T05:12:25;9.10;;;2.20;;
16282;SDS011;8249;48.708;9.030;2022-08-04T05:15:17;2.67;;;2.30;;
16282;SDS011;8249;48.708;9.030;2022-08-04T05:17:48;2.40;;;2.20;;
16282;SDS011;8249;48.708;9.030;2022-08-04T05:20:19;4.03;;;2.30;;
16282;SDS011;8249;48.708;9.030;2022-08-04T05:22:50;4.03;;;2.17;;
16282;SDS011;8249;48.708;9.030;2022-08-04T05:25:22;3.20;;;2.30;;
16282;SDS011;8249;48.708;9.030;2022-08-04T05:27:55;2.27;;;2.17;;
16282;SDS011;8249;48.708;9.030;2022-08-04T05:30:25;2.30;;;2.10;;
16282;SDS011;8249;48.708;9.030;2022-08-04T05:32:56;2.30;;;2.10;;
16282;SDS011;8249;48.708;9.030;2022-08-04T05:35:30;2.20;;;2.03;;
16282;SDS011;8249;48.708;9.030;2022-08-04T05:38:00;2.30;;;1.83;;
16282;SDS011;8249;48.708;9.030;2022-08-04T05:40:28;2.20;;;2.10;;
16282;SDS011;8249;48.708;9.030;2022-08-04T05:42:56;2.50;;;2.30;;
16282;SDS011;8249;48.708;9.030;2022-08-04T05:45:24;2.47;;;2.28;;
16282;SDS011;8249;48.708;9.030;2022-08-04T05:47:53;2.40;;;2.30;;
16282;SDS011;8249;48.708;9.030;2022-08-04T05:50:22;2.53;;;2.28;;
16282;SDS011;8249;48.708;9.030;2022-08-04T05:52:49;3.55;;;2.38;;
16282;SDS011;8249;48.708;9.030;2022-08-04T05:55:18;4.10;;;2.30;;
16282;SDS011;8249;48.708;9.030;2022-08-04T05:57:47;2.67;;;2.47;;
16282;SDS011;8249;48.708;9.030;2022-08-04T06:00:16;2.63;;;2.42;;
16282;SDS011;8249;48.708;9.030;2022-08-04T06:02:43;2.53;;;1.95;;
16282;SDS011;8249;48.708;9.030;2022-08-04T06:05:14;3.78;;;2.45;;
16282;SDS011;8249;48.708;9.030;2022-08-04T06:07:43;2.20;;;2.10;;
16282;SDS011;8249;48.708;9.030;2022-08-04T06:10:10;2.60;;;2.40;;
16282;SDS011;8249;48.708;9.030;2022-08-04T06:12:39;2.35;;;2.25;;
16282;SDS011;8249;48.708;9.030;2022-08-04T06:15:13;2.53;;;2.33;;
16282;SDS011;8249;48.708;9.030;2022-08-04T06:17:45;4.53;;;2.28;;
16282;SDS011;8249;48.708;9.030;2022-08-04T06:20:16;2.47;;;2.25;;
16282;SDS011;8249;48.708;9.030;2022-08-04T06:22:46;2.20;;;2.10;;
16282;SDS011;8249;48.708;9.030;2022-08-04T06:25:18;2.97;;;2.67;;
16282;SDS011;8249;48.708;9.030;2022-08-04T06:27:47;2.60;;;2.40;;
16282;SDS011;8249;48.708;9.030;2022-08-04T06:30:16;2.78;;;2.58;;
16282;SDS011;8249;48.708;9.030;2022-08-04T06:32:45;3.53;;;2.40;;
16282;SDS011;8249;48.708;9.030;2022-08-04T06:35:21;4.40;;;2.47;;
16282;SDS011;8249;48.708;9.030;2022-08-04T06:37:50;2.72;;;2.50;;
16282;SDS011;8249;48.708;9.030;2022-08-04T06:40:19;3.42;;;2.70;;
16282;SDS011;8249;48.708;9.030;2022-08-04T06:42:49;2.70;;;2.50;;
16282;SDS011;8249;48.708;9.030;2022-08-04T06:45:17;4.20;;;2.85;;
16282;SDS011;8249;48.708;9.030;2022-08-04T06:47:46;3.90;;;2.42;;
16282;SDS011;8249;48.708;9.030;2022-08-04T06:50:15;2.85;;;2.50;;
16282;SDS011;8249;48.708;9.030;2022-08-04T06:52:44;5.35;;;2.53;;
16282;SDS011;8249;48.708;9.030;2022-08-04T06:55:11;4.95;;;2.58;;
16282;SDS011;8249;48.708;9.030;2022-08-04T06:57:39;4.57;;;2.30;;
16282;SDS011;8249;48.708;9.030;2022-08-04T07:00:08;4.20;;;2.58;;
16282;SDS011;8249;48.708;9.030;2022-08-04T07:02:39;6.95;;;2.72;;
16282;SDS011;8249;48.708;9.030;2022-08-04T07:05:10;3.80;;;2.88;;
16282;SDS011;8249;48.708;9.030;2022-08-04T07:07:37;2.70;;;2.33;;
16282;SDS011;8249;48.708;9.030;2022-08-04T07:10:08;2.80;;;2.30;;
16282;SDS011;8249;48.708;9.030;2022-08-04T07:12:35;2.28;;;2.17;;
16282;SDS011;8249;48.708;9.030;2022-08-04T07:15:04;5.00;;;2.47;;
16282;SDS011;8249;48.708;9.030;2022-08-04T07:17:33;6.78;;;2.40;;
16282;SDS011;8249;48.708;9.030;2022-08-04T07:20:01;7.60;;;2.53;;
16282;SDS011;8249;48.708;9.030;2022-08-04T07:22:29;3.22;;;2.10;;
16282;SDS011;8249;48.708;9.030;2022-08-04T07:24:57;2.03;;;1.92;;
16282;SDS011;8249;48.708;9.030;2022-08-04T07:27:26;2.38;;;2.17;;
16282;SDS011;8249;48.708;9.030;2022-08-04T07:29:53;2.90;;;2.35;;
16282;SDS011;8249;48.708;9.030;2022-08-04T07:32:21;2.47;;;2.28;;
16282;SDS011;8249;48.708;9.030;2022-08-04T07:34:49;2.60;;;2.40;;
16282;SDS011;8249;48.708;9.030;2022-08-04T07:37:17;2.47;;;2.20;;
16282;SDS011;8249;48.708;9.030;2022-08-04T07:39:44;2.40;;;2.20;;
16282;SDS011;8249;48.708;9.030;2022-08-04T07:42:12;2.83;;;2.20;;
16282;SDS011;8249;48.708;9.030;2022-08-04T07:44:41;2.05;;;1.95;;
16282;SDS011;8249;48.708;9.030;2022-08-04T07:47:11;2.47;;;2.28;;
16282;SDS011;8249;48.708;9.030;2022-08-04T07:49:40;3.83;;;2.20;;
16282;SDS011;8249;48.708;9.030;2022-08-04T07:52:07;2.15;;;2.03;;
16282;SDS011;8249;48.708;9.030;2022-08-04T07:54:35;2.55;;;2.35;;
16282;SDS011;8249;48.708;9.030;2022-08-04T07:57:04;8.52;;;2.72;;
16282;SDS011;8249;48.708;9.030;2022-08-04T07:59:31;2.50;;;2.30;;
16282;SDS011;8249;48.708;9.030;2022-08-04T08:02:01;2.05;;;1.95;;
16282;SDS011;8249;48.708;9.030;2022-08-04T08:04:29;2.47;;;2.25;;
16282;SDS011;8249;48.708;9.030;2022-08-04T08:06:56;3.35;;;2.30;;
16282;SDS011;8249;48.708;9.030;2022-08-04T08:09:24;2.38;;;2.17;;
16282;SDS011;8249;48.708;9.030;2022-08-04T08:11:52;3.17;;;2.22;;
16282;SDS011;8249;48.708;9.030;2022-08-04T08:14:19;4.80;;;2.20;;
16282;SDS011;8249;48.708;9.030;2022-08-04T08:16:46;2.35;;;2.25;;
16282;SDS011;8249;48.708;9.030;2022-08-04T08:19:15;3.95;;;2.25;;
16282;SDS011;8249;48.708;9.030;2022-08-04T08:21:44;2.10;;;2.00;;
16282;SDS011;8249;48.708;9.030;2022-08-04T08:24:12;2.33;;;2.20;;
16282;SDS011;8249;48.708;9.030;2022-08-04T08:26:39;2.25;;;2.15;;
16282;SDS011;8249;48.708;9.030;2022-08-04T08:29:06;2.20;;;2.10;;
16282;SDS011;8249;48.708;9.030;2022-08-04T08:31:34;3.03;;;2.50;;
16282;SDS011;8249;48.708;9.030;2022-08-04T08:34:01;2.70;;;2.22;;
16282;SDS011;8249;48.708;9.030;2022-08-04T08:36:31;2.72;;;2.53;;
16282;SDS011;8249;48.708;9.030;2022-08-04T08:39:04;2.35;;;2.15;;
16282;SDS011;8249;48.708;9.030;2022-08-04T08:44:55;2.20;;;2.10;;
16282;SDS011;8249;48.708;9.030;2022-08-04T08:47:58;4.20;;;2.10;;
16282;SDS011;8249;48.708;9.030;2022-08-04T08:50:50;2.40;;;2.20;;
16282;SDS011;8249;48.708;9.030;2022-08-04T08:53:47;3.45;;;2.22;;
16282;SDS011;8249;48.708;9.030;2022-08-04T08:56:32;2.42;;;2.28;;
16282;SDS011;8249;48.708;9.030;2022-08-04T08:59:14;2.35;;;2.25;;
16282;SDS011;8249;48.708;9.030;2022-08-04T09:01:56;2.40;;;2.25;;
16282;SDS011;8249;48.708;9.030;2022-08-04T09:04:39;2.40;;;2.20;;
16282;SDS011;8249;48.708;9.030;2022-08-04T09:07:30;4.10;;;2.17;;
16282;SDS011;8249;48.708;9.030;2022-08-04T09:10:19;2.42;;;2.33;;
16282;SDS011;8249;48.708;9.030;2022-08-04T09:12:52;5.10;;;2.20;;
16282;SDS011;8249;48.708;9.030;2022-08-04T09:15:27;2.00;;;1.90;;
16282;SDS011;8249;48.708;9.030;2022-08-04T09:18:01;2.65;;;2.30;;
16282;SDS011;8249;48.708;9.030;2022-08-04T09:20:33;2.30;;;1.98;;
16282;SDS011;8249;48.708;9.030;2022-08-04T09:23:10;2.10;;;2.00;;
16282;SDS011;8249;48.708;9.030;2022-08-04T09:25:48;2.10;;;2.00;;
16282;SDS011;8249;48.708;9.030;2022-08-04T09:28:20;2.90;;;2.17;;
16282;SDS011;8249;48.708;9.030;2022-08-04T09:30:51;2.30;;;2.10;;
16282;SDS011;8249;48.708;9.030;2022-08-04T09:33:24;2.78;;;2.00;;
16282;SDS011;8249;48.708;9.030;2022-08-04T09:35:57;2.20;;;2.10;;
16282;SDS011;8249;48.708;9.030;2022-08-04T09:38:32;1.85;;;1.75;;
16282;SDS011;8249;48.708;9.030;2022-08-04T09:41:09;2.00;;;1.90;;
16282;SDS011;8249;48.708;9.030;2022-08-04T09:43:54;1.73;;;1.63;;
16282;SDS011;8249;48.708;9.030;2022-08-04T09:46:32;6.40;;;1.92;;
16282;SDS011;8249;48.708;9.030;2022-08-04T09:49:06;2.35;;;1.90;;
16282;SDS011;8249;48.708;9.030;2022-08-04T09:51:42;1.88;;;1.77;;
16282;SDS011;8249;48.708;9.030;2022-08-04T09:54:18;2.03;;;1.90;;
16282;SDS011;8249;48.708;9.030;2022-08-04T09:57:06;2.10;;;2.00;;
16282;SDS011;8249;48.708;9.030;2022-08-04T09:59:42;2.08;;;1.98;;
16282;SDS011;8249;48.708;9.030;2022-08-04T10:02:18;2.28;;;2.05;;
16282;SDS011;8249;48.708;9.030;2022-08-04T10:04:49;1.80;;;1.70;;
16282;SDS011;8249;48.708;9.030;2022-08-04T10:07:27;6.28;;;2.05;;
16282;SDS011;8249;48.708;9.030;2022-08-04T10:10:14;3.65;;;2.53;;
16282;SDS011;8249;48.708;9.030;2022-08-04T10:13:05;1.83;;;1.73;;
16282;SDS011;8249;48.708;9.030;2022-08-04T10:15:45;1.70;;;1.70;;
16282;SDS011;8249;48.708;9.030;2022-08-04T10:18:37;1.83;;;1.73;;
16282;SDS011;8249;48.708;9.030;2022-08-04T10:21:12;1.33;;;1.33;;
16282;SDS011;8249;48.708;9.030;2022-08-04T10:23:51;2.67;;;1.38;;
16282;SDS011;8249;48.708;9.030;2022-08-04T10:26:41;1.52;;;1.52;;
16282;SDS011;8249;48.708;9.030;2022-08-04T10:29:15;3.40;;;1.48;;
16282;SDS011;8249;48.708;9.030;2022-08-04T10:31:50;1.70;;;1.60;;
16282;SDS011;8249;48.708;9.030;2022-08-04T10:34:25;1.58;;;1.48;;
16282;SDS011;8249;48.708;9.030;2022-08-04T10:36:55;1.92;;;1.83;;
16282;SDS011;8249;48.708;9.030;2022-08-04T10:39:31;1.63;;;1.60;;
16282;SDS011;8249;48.708;9.030;2022-08-04T10:42:28;1.73;;;1.63;;
16282;SDS011;8249;48.708;9.030;2022-08-04T10:45:02;1.55;;;1.55;;
16282;SDS011;8249;48.708;9.030;2022-08-04T10:47:37;1.70;;;1.60;;
16282;SDS011;8249;48.708;9.030;2022-08-04T10:50:09;2.67;;;1.60;;
16282;SDS011;8249;48.708;9.030;2022-08-04T10:52:41;1.70;;;1.60;;
16282;SDS011;8249;48.708;9.030;2022-08-04T10:55:12;1.98;;;1.80;;
16282;SDS011;8249;48.708;9.030;2022-08-04T10:57:43;2.72;;;1.85;;
16282;SDS011;8249;48.708;9.030;2022-08-04T11:00:17;2.22;;;1.75;;
16282;SDS011;8249;48.708;9.030;2022-08-04T11:02:50;1.42;;;1.42;;
16282;SDS011;8249;48.708;9.030;2022-08-04T11:05:23;1.83;;;1.73;;
16282;SDS011;8249;48.708;9.030;2022-08-04T11:07:56;1.55;;;1.55;;
16282;SDS011;8249;48.708;9.030;2022-08-04T11:10:27;1.80;;;1.70;;
16282;SDS011;8249;48.708;9.030;2022-08-04T11:12:59;1.60;;;1.60;;
16282;SDS011;8249;48.708;9.030;2022-08-04T11:15:32;2.47;;;1.65;;
16282;SDS011;8249;48.708;9.030;2022-08-04T11:18:04;1.80;;;1.70;;
16282;SDS011;8249;48.708;9.030;2022-08-04T11:20:36;1.50;;;1.40;;
16282;SDS011;8249;48.708;9.030;2022-08-04T11:23:11;1.80;;;1.70;;
16282;SDS011;8249;48.708;9.030;2022-08-04T11:25:46;1.50;;;1.50;;
16282;SDS011;8249;48.708;9.030;2022-08-04T11:28:21;1.73;;;1.63;;
16282;SDS011;8249;48.708;9.030;2022-08-04T11:30:56;1.70;;;1.60;;
16282;SDS011;8249;48.708;9.030;2022-08-04T11:33:30;2.17;;;1.60;;
16282;SDS011;8249;48.708;9.030;2022-08-04T11:36:08;2.83;;;1.58;;
16282;SDS011;8249;48.708;9.030;2022-08-04T11:38:43;1.27;;;1.27;;
16282;SDS011;8249;48.708;9.030;2022-08-04T11:41:16;2.17;;;1.63;;
16282;SDS011;8249;48.708;9.030;2022-08-04T11:43:49;1.50;;;1.42;;
16282;SDS011;8249;48.708;9.030;2022-08-04T11:46:23;2.15;;;1.65;;
16282;SDS011;8249;48.708;9.030;2022-08-04T11:48:55;1.70;;;1.60;;
16282;SDS011;8249;48.708;9.030;2022-08-04T11:51:26;2.33;;;1.90;;
16282;SDS011;8249;48.708;9.030;2022-08-04T11:53:54;2.00;;;1.88;;
16282;SDS011;8249;48.708;9.030;2022-08-04T11:56:22;2.35;;;1.73;;
16282;SDS011;8249;48.708;9.030;2022-08-04T11:58:49;4.50;;;1.67;;
16282;SDS011;8249;48.708;9.030;2022-08-04T12:01:17;2.33;;;1.80;;
16282;SDS011;8249;48.708;9.030;2022-08-04T12:03:57;1.90;;;1.80;;
16282;SDS011;8249;48.708;9.030;2022-08-04T12:06:29;1.88;;;1.67;;
16282;SDS011;8249;48.708;9.030;2022-08-04T12:09:12;3.35;;;1.70;;
16282;SDS011;8249;48.708;9.030;2022-08-04T12:11:51;2.65;;;1.70;;
16282;SDS011;8249;48.708;9.030;2022-08-04T12:14:27;1.83;;;1.73;;
16282;SDS011;8249;48.708;9.030;2022-08-04T12:17:03;1.90;;;1.80;;
16282;SDS011;8249;48.708;9.030;2022-08-04T12:19:34;3.55;;;1.88;;
16282;SDS011;8249;48.708;9.030;2022-08-04T12:22:08;2.10;;;2.00;;
16282;SDS011;8249;48.708;9.030;2022-08-04T12:24:42;1.77;;;1.65;;
16282;SDS011;8249;48.708;9.030;2022-08-04T12:27:11;2.20;;;1.60;;
16282;SDS011;8249;48.708;9.030;2022-08-04T12:29:41;1.98;;;1.77;;
16282;SDS011;8249;48.708;9.030;2022-08-04T12:32:19;1.65;;;1.65;;
16282;SDS011;8249;48.708;9.030;2022-08-04T12:34:59;1.73;;;1.42;;
16282;SDS011;8249;48.708;9.030;2022-08-04T12:37:37;1.77;;;1.70;;
16282;SDS011;8249;48.708;9.030;2022-08-04T12:40:14;2.85;;;1.80;;
16282;SDS011;8249;48.708;9.030;2022-08-04T12:42:44;1.70;;;1.60;;
16282;SDS011;8249;48.708;9.030;2022-08-04T12:45:22;2.72;;;1.92;;
16282;SDS011;8249;48.708;9.030;2022-08-04T12:47:50;2.60;;;1.88;;
16282;SDS011;8249;48.708;9.030;2022-08-04T12:50:23;2.13;;;2.03;;
16282;SDS011;8249;48.708;9.030;2022-08-04T12:52:51;2.00;;;1.88;;
16282;SDS011;8249;48.708;9.030;2022-08-04T12:55:22;1.80;;;1.70;;
16282;SDS011;8249;48.708;9.030;2022-08-04T12:57:51;2.42;;;1.90;;
16282;SDS011;8249;48.708;9.030;2022-08-04T13:00:23;2.13;;;1.92;;
16282;SDS011;8249;48.708;9.030;2022-08-04T13:02:52;2.72;;;1.90;;
16282;SDS011;8249;48.708;9.030;2022-08-04T13:05:25;2.03;;;1.70;;
16282;SDS011;8249;48.708;9.030;2022-08-04T13:07:56;2.95;;;2.00;;
16282;SDS011;8249;48.708;9.030;2022-08-04T13:10:24;2.38;;;2.17;;
16282;SDS011;8249;48.708;9.030;2022-08-04T13:12:54;2.20;;;1.83;;
16282;SDS011;8249;48.708;9.030;2022-08-04T13:15:23;3.97;;;1.77;;
16282;SDS011;8249;48.708;9.030;2022-08-04T13:17:54;3.13;;;1.80;;
16282;SDS011;8249;48.708;9.030;2022-08-04T13:20:26;4.28;;;1.80;;
16282;SDS011;8249;48.708;9.030;2022-08-04T13:22:58;2.08;;;1.98;;
16282;SDS011;8249;48.708;9.030;2022-08-04T13:25:30;2.40;;;1.83;;
16282;SDS011;8249;48.708;9.030;2022-08-04T13:27:59;1.98;;;1.65;;
16282;SDS011;8249;48.708;9.030;2022-08-04T13:30:27;2.00;;;1.90;;
16282;SDS011;8249;48.708;9.030;2022-08-04T13:32:57;2.35;;;2.00;;
16282;SDS011;8249;48.708;9.030;2022-08-04T13:35:28;3.00;;;1.90;;
16282;SDS011;8249;48.708;9.030;2022-08-04T13:37:58;1.92;;;1.83;;
16282;SDS011;8249;48.708;9.030;2022-08-04T13:40:27;4.57;;;2.00;;
16282;SDS011;8249;48.708;9.030;2022-08-04T13:42:55;4.10;;;2.20;;
16282;SDS011;8249;48.708;9.030;2022-08-04T13:45:23;2.13;;;1.90;;
16282;SDS011;8249;48.708;9.030;2022-08-04T13:47:58;2.40;;;2.20;;
16282;SDS011;8249;48.708;9.030;2022-08-04T13:50:28;2.17;;;2.08;;
16282;SDS011;8249;48.708;9.030;2022-08-04T13:52:58;2.00;;;1.90;;
16282;SDS011;8249;48.708;9.030;2022-08-04T13:55:27;1.85;;;1.85;;
16282;SDS011;8249;48.708;9.030;2022-08-04T13:57:57;2.33;;;2.08;;
16282;SDS011;8249;48.708;9.030;2022-08-04T14:03:17;2.22;;;2.00;;
16282;SDS011;8249;48.708;9.030;2022-08-04T14:06:08;4.15;;;2.10;;
16282;SDS011;8249;48.708;9.030;2022-08-04T14:08:43;3.70;;;2.00;;
16282;SDS011;8249;48.708;9.030;2022-08-04T14:11:13;2.08;;;1.90;;
16282;SDS011;8249;48.708;9.030;2022-08-04T14:13:42;2.78;;;2.00;;
16282;SDS011;8249;48.708;9.030;2022-08-04T14:16:13;2.20;;;2.00;;
16282;SDS011;8249;48.708;9.030;2022-08-04T14:18:41;2.92;;;1.73;;
16282;SDS011;8249;48.708;9.030;2022-08-04T14:21:10;3.72;;;1.92;;
16282;SDS011;8249;48.708;9.030;2022-08-04T14:23:46;1.90;;;1.80;;
16282;SDS011;8249;48.708;9.030;2022-08-04T14:26:16;2.20;;;2.10;;
16282;SDS011;8249;48.708;9.030;2022-08-04T14:28:48;2.35;;;2.13;;
16282;SDS011;8249;48.708;9.030;2022-08-04T14:31:17;2.53;;;1.95;;
16282;SDS011;8249;48.708;9.030;2022-08-04T14:33:47;2.50;;;2.10;;
16282;SDS011;8249;48.708;9.030;2022-08-04T14:36:17;2.00;;;1.90;;
16282;SDS011;8249;48.708;9.030;2022-08-04T14:38:47;2.13;;;1.77;;
16282;SDS011;8249;48.708;9.030;2022-08-04T14:41:19;1.98;;;1.88;;
16282;SDS011;8249;48.708;9.030;2022-08-04T14:43:48;1.80;;;1.70;;
16282;SDS011;8249;48.708;9.030;2022-08-04T14:46:17;4.03;;;2.10;;
16282;SDS011;8249;48.708;9.030;2022-08-04T14:49:02;2.65;;;1.88;;
16282;SDS011;8249;48.708;9.030;2022-08-04T14:51:39;2.42;;;2.15;;
16282;SDS011;8249;48.708;9.030;2022-08-04T14:54:08;1.98;;;1.90;;
16282;SDS011;8249;48.708;9.030;2022-08-04T14:56:37;2.92;;;2.15;;
16282;SDS011;8249;48.708;9.030;2022-08-04T14:59:06;1.90;;;1.80;;
16282;SDS011;8249;48.708;9.030;2022-08-04T15:01:34;2.30;;;1.83;;
16282;SDS011;8249;48.708;9.030;2022-08-04T15:04:03;1.90;;;1.80;;
16282;SDS011;8249;48.708;9.030;2022-08-04T15:06:32;2.22;;;2.13;;
16282;SDS011;8249;48.708;9.030;2022-08-04T15:09:02;3.70;;;1.95;;
16282;SDS011;8249;48.708;9.030;2022-08-04T15:11:31;2.35;;;2.20;;
16282;SDS011;8249;48.708;9.030;2022-08-04T15:13:59;2.45;;;2.20;;
16282;SDS011;8249;48.708;9.030;2022-08-04T15:16:28;2.20;;;2.00;;
16282;SDS011;8249;48.708;9.030;2022-08-04T15:18:57;2.20;;;2.00;;
16282;SDS011;8249;48.708;9.030;2022-08-04T15:21:25;2.65;;;2.10;;
16282;SDS011;8249;48.708;9.030;2022-08-04T15:23:53;3.30;;;2.20;;
16282;SDS011;8249;48.708;9.030;2022-08-04T15:26:33;2.00;;;1.90;;
16282;SDS011;8249;48.708;9.030;2022-08-04T15:29:13;4.57;;;2.30;;
16282;SDS011;8249;48.708;9.030;2022-08-04T15:31:42;3.17;;;2.15;;
16282;SDS011;8249;48.708;9.030;2022-08-04T15:34:10;2.28;;;2.08;;
16282;SDS011;8249;48.708;9.030;2022-08-04T15:36:41;2.45;;;2.28;;
16282;SDS011;8249;48.708;9.030;2022-08-04T15:39:17;6.57;;;2.20;;
16282;SDS011;8249;48.708;9.030;2022-08-04T15:42:05;3.78;;;2.13;;
16282;SDS011;8249;48.708;9.030;2022-08-04T15:47:29;2.30;;;2.10;;
16282;SDS011;8249;48.708;9.030;2022-08-04T15:50:07;3.67;;;2.42;;
16282;SDS011;8249;48.708;9.030;2022-08-04T15:55:34;2.97;;;2.40;;
16282;SDS011;8249;48.708;9.030;2022-08-04T15:58:04;2.08;;;1.90;;
16282;SDS011;8249;48.708;9.030;2022-08-04T16:03:42;4.30;;;2.17;;
16282;SDS011;8249;48.708;9.030;2022-08-04T16:09:24;2.85;;;2.63;;
16282;SDS011;8249;48.708;9.030;2022-08-04T16:11:52;2.40;;;2.30;;
16282;SDS011;8249;48.708;9.030;2022-08-04T16:14:30;2.30;;;2.20;;
16282;SDS011;8249;48.708;9.030;2022-08-04T16:17:15;2.53;;;2.30;;
16282;SDS011;8249;48.708;9.030;2022-08-04T16:19:45;3.78;;;2.22;;
16282;SDS011;8249;48.708;9.030;2022-08-04T16:22:33;2.33;;;2.22;;
16282;SDS011;8249;48.708;9.030;2022-08-04T16:25:02;2.38;;;2.22;;
16282;SDS011;8249;48.708;9.030;2022-08-04T16:27:34;2.67;;;2.30;;
16282;SDS011;8249;48.708;9.030;2022-08-04T16:30:08;3.00;;;2.22;;